sensor_id;sensor_type;location;lat;lon;timestamp;pressure;altitude;pressure_sealevel;temperature;humidity
29549;BME280;16487;53.094;8.800;2023-05-16T00:01:11;101573.41;;;17.84;100.00
29549;BME280;16487;53.094;8.800;2023-05-16T00:03:38;101561.69;;;17.32;100.00
29549;BME280;16487;53.094;8.800;2023-05-16T00:06:06;101548.06;;;17.39;100.00
29549;BME280;16487;53.094;8.800;2023-05-16T00:08:33;101557.28;;;16.85;100.00
29549;BME280;16487;53.094;8.800;2023-05-16T00:11:01;101515.84;;;17.49;100.00
29549;BME280;16487;53.094;8.800;2023-05-16T00:13:30;101526.03;;;17.47;100.00
29549;BME280;16487;53.094;8.800;2023-05-16T00:15:57;101520.22;;;17.50;100.00
29549;BME280;16487;53.094;8.800;2023-05-16T00:18:25;101521.47;;;17.49;100.00
29549;BME280;16487;53.094;8.800;2023-05-16T00:20:53;101534.91;;;16.91;100.00
29549;BME280;16487;53.094;8.800;2023-05-16T00:23:20;101508.03;;;17.26;100.00
29549;BME280;16487;53.094;8.800;2023-05-16T00:25:48;101510.53;;;16.88;100.00
29549;BME280;16487;53.094;8.800;2023-05-16T00:28:15;101489.88;;;16.91;100.00
29549;BME280;16487;53.094;8.800;2023-05-16T00:30:44;101486.72;;;16.89;100.00
29549;BME280;16487;53.094;8.800;2023-05-16T00:33:11;101476.72;;;16.79;100.00
29549;BME280;16487;53.094;8.800;2023-05-16T00:35:39;101485.94;;;16.61;100.00
29549;BME280;16487;53.094;8.800;2023-05-16T00:38:06;101488.28;;;16.99;100.00
29549;BME280;16487;53.094;8.800;2023-05-16T00:40:33;101494.88;;;16.96;100.00
29549;BME280;16487;53.094;8.800;2023-05-16T00:43:01;101504.25;;;17.20;100.00
29549;BME280;16487;53.094;8.800;2023-05-16T00:45:29;101509.56;;;17.45;100.00
29549;BME280;16487;53.094;8.800;2023-05-16T00:47:57;101516.78;;;17.19;100.00
29549;BME280;16487;53.094;8.800;2023-05-16T00:50:26;101512.69;;;17.11;100.00
29549;BME280;16487;53.094;8.800;2023-05-16T00:52:54;101524.25;;;17.76;100.00
29549;BME280;16487;53.094;8.800;2023-05-16T00:55:22;101521.78;;;17.24;100.00
29549;BME280;16487;53.094;8.800;2023-05-16T00:57:49;101523.13;;;17.83;100.00
29549;BME280;16487;53.094;8.800;2023-05-16T01:00:17;101540.41;;;17.40;100.00
29549;BME280;16487;53.094;8.800;2023-05-16T01:02:45;101529.13;;;17.67;100.00
29549;BME280;16487;53.094;8.800;2023-05-16T01:05:14;101529.63;;;16.93;100.00
29549;BME280;16487;53.094;8.800;2023-05-16T01:07:41;101539.81;;;17.54;100.00
29549;BME280;16487;53.094;8.800;2023-05-16T01:10:09;101535.53;;;17.04;100.00
29549;BME280;16487;53.094;8.800;2023-05-16T01:12:42;101539.63;;;17.03;100.00
29549;BME280;16487;53.094;8.800;2023-05-16T01:15:13;101553.38;;;16.83;100.00
29549;BME280;16487;53.094;8.800;2023-05-16T01:17:49;101548.25;;;18.13;100.00
29549;BME280;16487;53.094;8.800;2023-05-16T01:20:29;101573.06;;;18.00;100.00
29549;BME280;16487;53.094;8.800;2023-05-16T01:23:08;101566.81;;;18.47;100.00
29549;BME280;16487;53.094;8.800;2023-05-16T01:25:55;101577.22;;;17.63;100.00
29549;BME280;16487;53.094;8.800;2023-05-16T01:28:24;101580.66;;;17.58;100.00
29549;BME280;16487;53.094;8.800;2023-05-16T01:30:53;101574.13;;;18.12;100.00
29549;BME280;16487;53.094;8.800;2023-05-16T01:33:20;101585.53;;;17.49;100.00
29549;BME280;16487;53.094;8.800;2023-05-16T01:35:52;101588.19;;;17.52;100.00
29549;BME280;16487;53.094;8.800;2023-05-16T01:38:24;101588.75;;;17.92;100.00
29549;BME280;16487;53.094;8.800;2023-05-16T01:40:55;101578.41;;;17.89;100.00
29549;BME280;16487;53.094;8.800;2023-05-16T01:43:32;101585.97;;;17.47;100.00
29549;BME280;16487;53.094;8.800;2023-05-16T01:46:06;101581.91;;;17.66;100.00
29549;BME280;16487;53.094;8.800;2023-05-16T01:48:43;101592.53;;;17.35;100.00
29549;BME280;16487;53.094;8.800;2023-05-16T01:51:15;101592.09;;;17.73;100.00
29549;BME280;16487;53.094;8.800;2023-05-16T01:53:42;101595.38;;;17.53;100.00
29549;BME280;16487;53.094;8.800;2023-05-16T01:56:15;101596.94;;;17.54;100.00
29549;BME280;16487;53.094;8.800;2023-05-16T01:58:45;101601.47;;;17.25;100.00
29549;BME280;16487;53.094;8.800;2023-05-16T02:01:14;101594.28;;;17.33;100.00
29549;BME280;16487;53.094;8.800;2023-05-16T02:03:41;101589.88;;;18.37;100.00
29549;BME280;16487;53.094;8.800;2023-05-16T02:06:09;101599.09;;;17.95;100.00
29549;BME280;16487;53.094;8.800;2023-05-16T02:08:36;101607.72;;;17.38;100.00
29549;BME280;16487;53.094;8.800;2023-05-16T02:11:03;101603.38;;;17.73;100.00
29549;BME280;16487;53.094;8.800;2023-05-16T02:13:31;101601.34;;;17.55;100.00
29549;BME280;16487;53.094;8.800;2023-05-16T02:16:04;101610.38;;;17.14;100.00
29549;BME280;16487;53.094;8.800;2023-05-16T02:18:32;101606.78;;;17.32;100.00
29549;BME280;16487;53.094;8.800;2023-05-16T02:20:59;101612.44;;;17.23;100.00
29549;BME280;16487;53.094;8.800;2023-05-16T02:23:26;101617.78;;;17.48;100.00
29549;BME280;16487;53.094;8.800;2023-05-16T02:25:53;101617.56;;;17.15;100.00
29549;BME280;16487;53.094;8.800;2023-05-16T02:28:22;101603.53;;;17.51;100.00
29549;BME280;16487;53.094;8.800;2023-05-16T02:30:55;101605.66;;;17.92;100.00
29549;BME280;16487;53.094;8.800;2023-05-16T02:33:24;101618.06;;;16.65;100.00
29549;BME280;16487;53.094;8.800;2023-05-16T02:35:52;101615.91;;;16.69;100.00
29549;BME280;16487;53.094;8.800;2023-05-16T02:38:19;101629.97;;;16.69;100.00
29549;BME280;16487;53.094;8.800;2023-05-16T02:40:47;101625.72;;;16.64;100.00
29549;BME280;16487;53.094;8.800;2023-05-16T02:43:15;101635.09;;;17.28;100.00
29549;BME280;16487;53.094;8.800;2023-05-16T02:45:43;101636.19;;;17.03;100.00
29549;BME280;16487;53.094;8.800;2023-05-16T02:48:10;101636.06;;;17.34;100.00
29549;BME280;16487;53.094;8.800;2023-05-16T02:50:39;101648.84;;;16.59;100.00
29549;BME280;16487;53.094;8.800;2023-05-16T02:53:06;101646.31;;;16.52;100.00
29549;BME280;16487;53.094;8.800;2023-05-16T02:55:34;101659.66;;;16.61;100.00
29549;BME280;16487;53.094;8.800;2023-05-16T02:58:01;101656.34;;;16.32;100.00
29549;BME280;16487;53.094;8.800;2023-05-16T03:00:29;101659.91;;;16.23;100.00
29549;BME280;16487;53.094;8.800;2023-05-16T03:02:56;101673.97;;;16.23;100.00
29549;BME280;16487;53.094;8.800;2023-05-16T03:05:24;101659.69;;;16.39;100.00
29549;BME280;16487;53.094;8.800;2023-05-16T03:07:55;101670.81;;;16.21;100.00
29549;BME280;16487;53.094;8.800;2023-05-16T03:10:22;101665.13;;;16.12;100.00
29549;BME280;16487;53.094;8.800;2023-05-16T03:12:49;101671.94;;;16.24;100.00
29549;BME280;16487;53.094;8.800;2023-05-16T03:15:16;101661.69;;;16.08;100.00
29549;BME280;16487;53.094;8.800;2023-05-16T03:17:44;101671.16;;;16.23;100.00
29549;BME280;16487;53.094;8.800;2023-05-16T03:20:11;101681.03;;;15.84;100.00
29549;BME280;16487;53.094;8.800;2023-05-16T03:22:39;101675.59;;;15.68;100.00
29549;BME280;16487;53.094;8.800;2023-05-16T03:25:08;101677.31;;;15.87;100.00
29549;BME280;16487;53.094;8.800;2023-05-16T03:27:40;101688.91;;;15.89;100.00
29549;BME280;16487;53.094;8.800;2023-05-16T03:30:08;101685.63;;;15.91;100.00
29549;BME280;16487;53.094;8.800;2023-05-16T03:32:36;101684.75;;;16.25;100.00
29549;BME280;16487;53.094;8.800;2023-05-16T03:35:04;101693.19;;;15.60;100.00
29549;BME280;16487;53.094;8.800;2023-05-16T03:37:32;101694.41;;;15.59;100.00
29549;BME280;16487;53.094;8.800;2023-05-16T03:39:59;101695.66;;;15.58;100.00
29549;BME280;16487;53.094;8.800;2023-05-16T03:42:28;101704.19;;;15.67;100.00
29549;BME280;16487;53.094;8.800;2023-05-16T03:44:55;101698.88;;;16.12;100.00
29549;BME280;16487;53.094;8.800;2023-05-16T03:47:22;101697.91;;;15.84;100.00
29549;BME280;16487;53.094;8.800;2023-05-16T03:49:50;101706.81;;;16.04;100.00
29549;BME280;16487;53.094;8.800;2023-05-16T03:52:18;101702.81;;;15.93;100.00
29549;BME280;16487;53.094;8.800;2023-05-16T03:54:45;101704.44;;;15.81;100.00
29549;BME280;16487;53.094;8.800;2023-05-16T03:57:13;101707.59;;;15.49;100.00
29549;BME280;16487;53.094;8.800;2023-05-16T03:59:42;101716.88;;;16.36;100.00
29549;BME280;16487;53.094;8.800;2023-05-16T04:02:09;101710.56;;;15.67;100.00
29549;BME280;16487;53.094;8.800;2023-05-16T04:04:36;101709.81;;;15.88;100.00
29549;BME280;16487;53.094;8.800;2023-05-16T04:07:04;101722.78;;;16.08;100.00
29549;BME280;16487;53.094;8.800;2023-05-16T04:09:31;101708.84;;;16.04;100.00
29549;BME280;16487;53.094;8.800;2023-05-16T04:11:58;101717.38;;;16.44;100.00
29549;BME280;16487;53.094;8.800;2023-05-16T04:14:26;101719.94;;;16.81;100.00
29549;BME280;16487;53.094;8.800;2023-05-16T04:16:54;101730.00;;;16.52;100.00
29549;BME280;16487;53.094;8.800;2023-05-16T04:19:22;101729.59;;;17.02;100.00
29549;BME280;16487;53.094;8.800;2023-05-16T04:21:49;101731.38;;;15.91;100.00
29549;BME280;16487;53.094;8.800;2023-05-16T04:24:16;101736.38;;;15.87;100.00
29549;BME280;16487;53.094;8.800;2023-05-16T04:26:44;101731.06;;;15.89;100.00
29549;BME280;16487;53.094;8.800;2023-05-16T04:29:11;101736.00;;;16.41;100.00
29549;BME280;16487;53.094;8.800;2023-05-16T04:31:38;101738.84;;;16.07;100.00
29549;BME280;16487;53.094;8.800;2023-05-16T04:34:07;101741.66;;;16.07;100.00
29549;BME280;16487;53.094;8.800;2023-05-16T04:36:34;101740.69;;;16.66;100.00
29549;BME280;16487;53.094;8.800;2023-05-16T04:39:02;101744.69;;;16.13;100.00
29549;BME280;16487;53.094;8.800;2023-05-16T04:41:29;101740.94;;;16.37;100.00
29549;BME280;16487;53.094;8.800;2023-05-16T04:43:56;101744.56;;;15.94;100.00
29549;BME280;16487;53.094;8.800;2023-05-16T04:46:24;101753.16;;;16.00;100.00
29549;BME280;16487;53.094;8.800;2023-05-16T04:48:51;101747.63;;;16.31;100.00
29549;BME280;16487;53.094;8.800;2023-05-16T04:51:20;101746.06;;;16.08;100.00
29549;BME280;16487;53.094;8.800;2023-05-16T04:53:47;101759.66;;;16.10;100.00
29549;BME280;16487;53.094;8.800;2023-05-16T04:56:14;101763.78;;;15.96;100.00
29549;BME280;16487;53.094;8.800;2023-05-16T04:58:42;101757.69;;;16.19;100.00
29549;BME280;16487;53.094;8.800;2023-05-16T05:01:09;101769.88;;;16.16;100.00
29549;BME280;16487;53.094;8.800;2023-05-16T05:03:36;101765.78;;;16.51;100.00
29549;BME280;16487;53.094;8.800;2023-05-16T05:06:04;101770.25;;;16.05;100.00
29549;BME280;16487;53.094;8.800;2023-05-16T05:08:33;101766.66;;;16.27;100.00
29549;BME280;16487;53.094;8.800;2023-05-16T05:11:00;101774.31;;;16.04;100.00
29549;BME280;16487;53.094;8.800;2023-05-16T05:13:27;101776.31;;;15.82;100.00
29549;BME280;16487;53.094;8.800;2023-05-16T05:15:55;101780.28;;;16.07;100.00
29549;BME280;16487;53.094;8.800;2023-05-16T05:18:22;101785.44;;;16.08;100.00
29549;BME280;16487;53.094;8.800;2023-05-16T05:20:49;101782.41;;;16.02;100.00
29549;BME280;16487;53.094;8.800;2023-05-16T05:23:17;101788.38;;;15.70;100.00
29549;BME280;16487;53.094;8.800;2023-05-16T05:25:45;101789.22;;;16.14;100.00
29549;BME280;16487;53.094;8.800;2023-05-16T05:28:13;101793.72;;;15.77;100.00
29549;BME280;16487;53.094;8.800;2023-05-16T05:30:40;101794.88;;;15.67;100.00
29549;BME280;16487;53.094;8.800;2023-05-16T05:33:09;101797.06;;;15.97;100.00
29549;BME280;16487;53.094;8.800;2023-05-16T05:35:37;101787.84;;;15.84;100.00
29549;BME280;16487;53.094;8.800;2023-05-16T05:38:04;101796.72;;;15.95;100.00
29549;BME280;16487;53.094;8.800;2023-05-16T05:40:32;101782.03;;;16.35;100.00
29549;BME280;16487;53.094;8.800;2023-05-16T05:43:00;101784.75;;;16.04;100.00
29549;BME280;16487;53.094;8.800;2023-05-16T05:45:28;101790.69;;;16.19;100.00
29549;BME280;16487;53.094;8.800;2023-05-16T05:47:55;101784.81;;;16.69;100.00
29549;BME280;16487;53.094;8.800;2023-05-16T05:50:23;101793.47;;;16.53;100.00
29549;BME280;16487;53.094;8.800;2023-05-16T05:52:50;101784.28;;;16.40;100.00
29549;BME280;16487;53.094;8.800;2023-05-16T05:55:18;101800.72;;;16.07;100.00
29549;BME280;16487;53.094;8.800;2023-05-16T05:57:45;101788.91;;;16.77;100.00
29549;BME280;16487;53.094;8.800;2023-05-16T06:00:14;101797.47;;;16.95;100.00
29549;BME280;16487;53.094;8.800;2023-05-16T06:02:41;101792.09;;;17.18;100.00
29549;BME280;16487;53.094;8.800;2023-05-16T06:05:09;101786.13;;;17.16;100.00
29549;BME280;16487;53.094;8.800;2023-05-16T06:07:36;101802.53;;;16.35;100.00
29549;BME280;16487;53.094;8.800;2023-05-16T06:10:04;101804.06;;;16.70;100.00
29549;BME280;16487;53.094;8.800;2023-05-16T06:12:32;101806.41;;;16.72;100.00
29549;BME280;16487;53.094;8.800;2023-05-16T06:14:59;101816.13;;;16.71;100.00
29549;BME280;16487;53.094;8.800;2023-05-16T06:17:28;101802.75;;;17.24;100.00
29549;BME280;16487;53.094;8.800;2023-05-16T06:19:55;101804.53;;;17.39;100.00
29549;BME280;16487;53.094;8.800;2023-05-16T06:22:22;101813.03;;;17.08;100.00
29549;BME280;16487;53.094;8.800;2023-05-16T06:24:50;101811.19;;;17.54;100.00
29549;BME280;16487;53.094;8.800;2023-05-16T06:27:17;101812.38;;;17.84;100.00
29549;BME280;16487;53.094;8.800;2023-05-16T06:29:45;101802.50;;;18.06;100.00
29549;BME280;16487;53.094;8.800;2023-05-16T06:32:12;101812.56;;;18.07;100.00
29549;BME280;16487;53.094;8.800;2023-05-16T06:34:41;101798.28;;;17.93;100.00
29549;BME280;16487;53.094;8.800;2023-05-16T06:37:08;101798.09;;;17.78;100.00
29549;BME280;16487;53.094;8.800;2023-05-16T06:39:35;101799.06;;;18.29;100.00
29549;BME280;16487;53.094;8.800;2023-05-16T06:42:03;101811.25;;;17.33;100.00
29549;BME280;16487;53.094;8.800;2023-05-16T06:44:32;101816.25;;;17.68;100.00
29549;BME280;16487;53.094;8.800;2023-05-16T06:47:00;101835.13;;;17.10;100.00
29549;BME280;16487;53.094;8.800;2023-05-16T06:49:27;101822.44;;;17.45;100.00
29549;BME280;16487;53.094;8.800;2023-05-16T06:51:56;101822.00;;;18.41;100.00
29549;BME280;16487;53.094;8.800;2023-05-16T06:54:23;101819.00;;;17.10;100.00
29549;BME280;16487;53.094;8.800;2023-05-16T06:56:51;101829.59;;;17.77;100.00
29549;BME280;16487;53.094;8.800;2023-05-16T06:59:18;101832.25;;;17.80;100.00
29549;BME280;16487;53.094;8.800;2023-05-16T07:01:46;101822.88;;;17.83;100.00
29549;BME280;16487;53.094;8.800;2023-05-16T07:04:13;101827.06;;;16.99;100.00
29549;BME280;16487;53.094;8.800;2023-05-16T07:06:40;101835.06;;;17.80;100.00
29549;BME280;16487;53.094;8.800;2023-05-16T07:09:09;101821.63;;;18.11;100.00
29549;BME280;16487;53.094;8.800;2023-05-16T07:11:37;101830.50;;;17.56;100.00
29549;BME280;16487;53.094;8.800;2023-05-16T07:14:04;101822.72;;;17.38;100.00
29549;BME280;16487;53.094;8.800;2023-05-16T07:16:31;101824.47;;;18.02;100.00
29549;BME280;16487;53.094;8.800;2023-05-16T07:18:59;101813.66;;;18.28;100.00
29549;BME280;16487;53.094;8.800;2023-05-16T07:21:28;101825.75;;;18.19;100.00
29549;BME280;16487;53.094;8.800;2023-05-16T07:23:55;101824.00;;;18.67;100.00
29549;BME280;16487;53.094;8.800;2023-05-16T07:26:24;101831.09;;;18.45;100.00
29549;BME280;16487;53.094;8.800;2023-05-16T07:28:51;101829.50;;;18.71;100.00
29549;BME280;16487;53.094;8.800;2023-05-16T07:31:19;101830.44;;;18.50;100.00
29549;BME280;16487;53.094;8.800;2023-05-16T07:33:47;101809.63;;;19.49;100.00
29549;BME280;16487;53.094;8.800;2023-05-16T07:36:14;101825.75;;;18.19;100.00
29549;BME280;16487;53.094;8.800;2023-05-16T07:38:43;101817.06;;;18.77;100.00
29549;BME280;16487;53.094;8.800;2023-05-16T07:41:11;101840.28;;;18.00;100.00
29549;BME280;16487;53.094;8.800;2023-05-16T07:43:40;101833.88;;;18.17;100.00
29549;BME280;16487;53.094;8.800;2023-05-16T07:46:08;101843.31;;;18.14;100.00
29549;BME280;16487;53.094;8.800;2023-05-16T07:48:36;101856.16;;;18.15;100.00
29549;BME280;16487;53.094;8.800;2023-05-16T07:51:03;101892.66;;;16.57;100.00
29549;BME280;16487;53.094;8.800;2023-05-16T07:53:31;101895.59;;;16.41;100.00
29549;BME280;16487;53.094;8.800;2023-05-16T07:55:58;101905.53;;;15.86;100.00
29549;BME280;16487;53.094;8.800;2023-05-16T07:58:27;101906.28;;;16.46;100.00
29549;BME280;16487;53.094;8.800;2023-05-16T08:00:56;101891.03;;;16.22;100.00
29549;BME280;16487;53.094;8.800;2023-05-16T08:03:23;101893.41;;;17.00;100.00
29549;BME280;16487;53.094;8.800;2023-05-16T08:05:51;101901.81;;;16.36;100.00
29549;BME280;16487;53.094;8.800;2023-05-16T08:08:18;101885.78;;;16.79;100.00
29549;BME280;16487;53.094;8.800;2023-05-16T08:10:46;101891.25;;;17.26;100.00
29549;BME280;16487;53.094;8.800;2023-05-16T08:13:13;101881.00;;;17.19;100.00
29549;BME280;16487;53.094;8.800;2023-05-16T08:15:41;101886.72;;;18.17;100.00
29549;BME280;16487;53.094;8.800;2023-05-16T08:18:13;101879.09;;;17.38;100.00
29549;BME280;16487;53.094;8.800;2023-05-16T08:20:41;101880.94;;;18.29;100.00
29549;BME280;16487;53.094;8.800;2023-05-16T08:23:09;101862.13;;;18.45;100.00
29549;BME280;16487;53.094;8.800;2023-05-16T08:25:37;101860.88;;;18.82;100.00
29549;BME280;16487;53.094;8.800;2023-05-16T08:28:04;101869.16;;;18.31;100.00
29549;BME280;16487;53.094;8.800;2023-05-16T08:30:31;101866.81;;;18.20;100.00
29549;BME280;16487;53.094;8.800;2023-05-16T08:32:59;101871.91;;;17.86;100.00
29549;BME280;16487;53.094;8.800;2023-05-16T08:35:28;101868.78;;;17.75;100.00
29549;BME280;16487;53.094;8.800;2023-05-16T08:37:55;101857.59;;;17.62;100.00
29549;BME280;16487;53.094;8.800;2023-05-16T08:40:24;101856.19;;;18.70;100.00
29549;BME280;16487;53.094;8.800;2023-05-16T08:42:52;101840.69;;;19.58;100.00
29549;BME280;16487;53.094;8.800;2023-05-16T08:45:20;101832.44;;;19.45;100.00
29549;BME280;16487;53.094;8.800;2023-05-16T08:47:49;101834.66;;;18.63;100.00
29549;BME280;16487;53.094;8.800;2023-05-16T08:50:16;101838.75;;;18.26;100.00
29549;BME280;16487;53.094;8.800;2023-05-16T08:52:46;101838.00;;;18.53;100.00
29549;BME280;16487;53.094;8.800;2023-05-16T08:55:19;101840.47;;;18.78;100.00
29549;BME280;16487;53.094;8.800;2023-05-16T08:57:48;101824.28;;;18.87;100.00
29549;BME280;16487;53.094;8.800;2023-05-16T09:00:17;101847.53;;;18.28;100.00
29549;BME280;16487;53.094;8.800;2023-05-16T09:02:45;101812.31;;;19.43;100.00
29549;BME280;16487;53.094;8.800;2023-05-16T09:05:14;101827.50;;;19.13;100.00
29549;BME280;16487;53.094;8.800;2023-05-16T09:07:43;101810.81;;;19.89;100.00
29549;BME280;16487;53.094;8.800;2023-05-16T09:10:12;101813.31;;;19.31;100.00
29549;BME280;16487;53.094;8.800;2023-05-16T09:12:40;101787.47;;;20.56;100.00
29549;BME280;16487;53.094;8.800;2023-05-16T09:15:08;101785.56;;;20.38;100.00
29549;BME280;16487;53.094;8.800;2023-05-16T09:17:37;101794.47;;;20.61;100.00
29549;BME280;16487;53.094;8.800;2023-05-16T09:20:08;101801.66;;;20.18;100.00
29549;BME280;16487;53.094;8.800;2023-05-16T09:22:36;101797.06;;;20.20;100.00
29549;BME280;16487;53.094;8.800;2023-05-16T09:25:04;101796.59;;;20.36;100.00
29549;BME280;16487;53.094;8.800;2023-05-16T09:27:40;101796.16;;;20.38;100.00
29549;BME280;16487;53.094;8.800;2023-05-16T09:30:08;101791.06;;;21.15;100.00
29549;BME280;16487;53.094;8.800;2023-05-16T09:32:42;101775.88;;;22.53;100.00
29549;BME280;16487;53.094;8.800;2023-05-16T09:35:13;101771.84;;;22.59;100.00
29549;BME280;16487;53.094;8.800;2023-05-16T09:37:46;101769.59;;;22.43;100.00
29549;BME280;16487;53.094;8.800;2023-05-16T09:40:14;101777.69;;;22.30;100.00
29549;BME280;16487;53.094;8.800;2023-05-16T09:42:44;101793.91;;;21.15;100.00
29549;BME280;16487;53.094;8.800;2023-05-16T09:45:12;101781.84;;;21.34;100.00
29549;BME280;16487;53.094;8.800;2023-05-16T09:47:40;101822.09;;;20.13;100.00
29549;BME280;16487;53.094;8.800;2023-05-16T09:50:08;101799.66;;;20.47;100.00
29549;BME280;16487;53.094;8.800;2023-05-16T09:52:36;101794.91;;;20.83;100.00
29549;BME280;16487;53.094;8.800;2023-05-16T09:55:06;101793.31;;;21.60;100.00
29549;BME280;16487;53.094;8.800;2023-05-16T09:57:36;101807.44;;;20.23;100.00
29549;BME280;16487;53.094;8.800;2023-05-16T10:00:08;101816.56;;;19.48;100.00
29549;BME280;16487;53.094;8.800;2023-05-16T10:02:37;101823.38;;;19.32;100.00
29549;BME280;16487;53.094;8.800;2023-05-16T10:05:05;101833.22;;;18.86;100.00
29549;BME280;16487;53.094;8.800;2023-05-16T10:07:33;101847.38;;;18.32;100.00
29549;BME280;16487;53.094;8.800;2023-05-16T10:10:05;101842.50;;;18.86;100.00
29549;BME280;16487;53.094;8.800;2023-05-16T10:12:33;101832.50;;;20.98;100.00
29549;BME280;16487;53.094;8.800;2023-05-16T10:15:02;101826.88;;;19.09;100.00
29549;BME280;16487;53.094;8.800;2023-05-16T10:17:33;101847.59;;;19.15;100.00
29549;BME280;16487;53.094;8.800;2023-05-16T10:20:02;101861.94;;;18.84;100.00
29549;BME280;16487;53.094;8.800;2023-05-16T10:22:32;101865.38;;;18.25;100.00
29549;BME280;16487;53.094;8.800;2023-05-16T10:25:07;101901.78;;;17.65;100.00
29549;BME280;16487;53.094;8.800;2023-05-16T10:27:35;101916.53;;;17.17;100.00
29549;BME280;16487;53.094;8.800;2023-05-16T10:30:03;101907.03;;;17.54;100.00
29549;BME280;16487;53.094;8.800;2023-05-16T10:32:33;101906.63;;;18.13;100.00
29549;BME280;16487;53.094;8.800;2023-05-16T10:35:01;101906.81;;;18.37;100.00
29549;BME280;16487;53.094;8.800;2023-05-16T10:37:30;101892.84;;;19.06;100.00
29549;BME280;16487;53.094;8.800;2023-05-16T10:39:58;101871.84;;;20.52;100.00
29549;BME280;16487;53.094;8.800;2023-05-16T10:42:27;101858.72;;;20.93;100.00
29549;BME280;16487;53.094;8.800;2023-05-16T10:44:54;101861.81;;;20.66;100.00
29549;BME280;16487;53.094;8.800;2023-05-16T10:47:36;101850.47;;;21.53;100.00
29549;BME280;16487;53.094;8.800;2023-05-16T10:50:04;101860.34;;;21.92;100.00
29549;BME280;16487;53.094;8.800;2023-05-16T10:52:33;101862.03;;;20.91;100.00
29549;BME280;16487;53.094;8.800;2023-05-16T10:55:02;101868.41;;;19.77;100.00
29549;BME280;16487;53.094;8.800;2023-05-16T10:57:31;101877.34;;;19.43;100.00
29549;BME280;16487;53.094;8.800;2023-05-16T10:59:59;101892.38;;;18.98;100.00
29549;BME280;16487;53.094;8.800;2023-05-16T11:02:27;101903.66;;;19.07;100.00
29549;BME280;16487;53.094;8.800;2023-05-16T11:04:57;101870.25;;;18.97;100.00
29549;BME280;16487;53.094;8.800;2023-05-16T11:07:30;101881.56;;;18.97;100.00
29549;BME280;16487;53.094;8.800;2023-05-16T11:10:04;101881.09;;;19.58;100.00
29549;BME280;16487;53.094;8.800;2023-05-16T11:12:42;101880.56;;;19.27;100.00
29549;BME280;16487;53.094;8.800;2023-05-16T11:15:17;101861.13;;;20.09;100.00
29549;BME280;16487;53.094;8.800;2023-05-16T11:17:45;101856.34;;;20.77;100.00
29549;BME280;16487;53.094;8.800;2023-05-16T11:20:26;101849.22;;;20.96;100.00
29549;BME280;16487;53.094;8.800;2023-05-16T11:23:21;101832.41;;;21.71;100.00
29549;BME280;16487;53.094;8.800;2023-05-16T11:25:52;101847.50;;;21.13;100.00
29549;BME280;16487;53.094;8.800;2023-05-16T11:28:20;101813.06;;;23.01;100.00
29549;BME280;16487;53.094;8.800;2023-05-16T11:30:49;101815.00;;;23.46;100.00
29549;BME280;16487;53.094;8.800;2023-05-16T11:33:18;101818.19;;;24.01;100.00
29549;BME280;16487;53.094;8.800;2023-05-16T11:36:02;101848.94;;;22.07;100.00
29549;BME280;16487;53.094;8.800;2023-05-16T11:38:42;101842.69;;;22.03;100.00
29549;BME280;16487;53.094;8.800;2023-05-16T11:41:09;101827.56;;;23.70;100.00
29549;BME280;16487;53.094;8.800;2023-05-16T11:43:39;101843.06;;;21.76;100.00
29549;BME280;16487;53.094;8.800;2023-05-16T11:46:10;101824.44;;;22.29;100.00
29549;BME280;16487;53.094;8.800;2023-05-16T11:48:37;101842.69;;;20.90;100.00
29549;BME280;16487;53.094;8.800;2023-05-16T11:51:07;101860.41;;;19.99;100.00
29549;BME280;16487;53.094;8.800;2023-05-16T11:53:36;101887.84;;;18.83;100.00
29549;BME280;16487;53.094;8.800;2023-05-16T11:56:04;101914.31;;;19.21;100.00
29549;BME280;16487;53.094;8.800;2023-05-16T11:58:33;101920.19;;;18.64;100.00
29549;BME280;16487;53.094;8.800;2023-05-16T12:01:03;101921.06;;;18.24;100.00
29549;BME280;16487;53.094;8.800;2023-05-16T12:03:31;101930.78;;;17.44;100.00
29549;BME280;16487;53.094;8.800;2023-05-16T12:05:59;101936.50;;;17.53;100.00
29549;BME280;16487;53.094;8.800;2023-05-16T12:08:28;101935.81;;;18.19;100.00
29549;BME280;16487;53.094;8.800;2023-05-16T12:10:55;101925.00;;;18.18;100.00
29549;BME280;16487;53.094;8.800;2023-05-16T12:13:23;101920.47;;;19.02;100.00
29549;BME280;16487;53.094;8.800;2023-05-16T12:15:51;101889.13;;;22.00;100.00
29549;BME280;16487;53.094;8.800;2023-05-16T12:18:19;101867.72;;;22.85;100.00
29549;BME280;16487;53.094;8.800;2023-05-16T12:20:46;101856.44;;;22.96;100.00
29549;BME280;16487;53.094;8.800;2023-05-16T12:23:14;101837.44;;;23.38;100.00
29549;BME280;16487;53.094;8.800;2023-05-16T12:25:46;101842.63;;;24.30;100.00
29549;BME280;16487;53.094;8.800;2023-05-16T12:28:14;101815.59;;;25.45;100.00
29549;BME280;16487;53.094;8.800;2023-05-16T12:30:42;101814.00;;;25.66;100.00
29549;BME280;16487;53.094;8.800;2023-05-16T12:33:11;101802.72;;;26.93;100.00
29549;BME280;16487;53.094;8.800;2023-05-16T12:35:40;101846.16;;;24.03;100.00
29549;BME280;16487;53.094;8.800;2023-05-16T12:38:09;101892.63;;;21.45;100.00
29549;BME280;16487;53.094;8.800;2023-05-16T12:40:37;101989.31;;;17.92;100.00
29549;BME280;16487;53.094;8.800;2023-05-16T12:43:13;101994.31;;;16.34;100.00
29549;BME280;16487;53.094;8.800;2023-05-16T12:45:41;101979.00;;;16.60;100.00
29549;BME280;16487;53.094;8.800;2023-05-16T12:48:11;101973.25;;;17.28;100.00